Western Trident — 3FE09 — position and weather

sailwx.info

Track history (hours):
 
Tides and Currents Weather Stations Pressure Air Temp Water Temp Dewpoint Dewpoint Depression Visibility Wind Speed Wind Dir Waves Ship Positions

Western Trident

Last reported at 2015-Aug-28 20:30 UTC. Time now 2015-Sep-03 17:14 UTC.
Position N 47°47' W 052°11'.

Length 95 m; draft 7.4 m.

Type: Other ship. MMSI: 357269000.

Date/timePositionNaut miles runAvg speedWind from/ knotsBaromVisibWave heightAir tempDewpointWater temp
2015-Aug-28 20:30N 47°47' W 052°11'1212.4
2015-Aug-28 19:33N 47°39' W 052°24'1210.2
2015-Aug-28 18:23N 47°34' W 052°40'1 0.7
2015-Aug-28 16:22N 47°34' W 052°42'0 0.0
2015-Aug-28 15:28N 47°34' W 052°42'0 0.0
2015-Aug-28 14:22N 47°34' W 052°42'0 0.0
2015-Aug-28 13:28N 47°34' W 052°42'0 0.0
2015-Aug-28 12:28N 47°34' W 052°42'0 0.0
2015-Aug-28 11:28N 47°34' W 052°42'0 0.0
2015-Aug-28 10:22N 47°34' W 052°42'0 0.0
2015-Aug-28 09:22N 47°34' W 052°42'0 0.0
2015-Aug-28 08:28N 47°34' W 052°42'0 0.0
2015-Aug-28 07:16N 47°34' W 052°42'0 0.0
2015-Aug-28 06:16N 47°34' W 052°42'0 0.0
2015-Aug-28 05:22N 47°34' W 052°42'0 0.0
2015-Aug-28 04:22N 47°34' W 052°42'0 0.0
2015-Aug-28 03:28N 47°34' W 052°42'0 0.0
2015-Aug-27 14:16N 47°34' W 052°42'0 0.0
2015-Aug-27 13:28N 47°34' W 052°42'0 0.0
2015-Aug-27 12:22N 47°34' W 052°42'0 0.0
2015-Aug-27 11:28N 47°34' W 052°42'0 0.0
2015-Aug-26 11:10N 47°34' W 052°42'0 0.0
2015-Aug-26 10:28N 47°34' W 052°42'2 1.8
2015-Aug-26 09:23N 47°34' W 052°39'2 2.5
2015-Aug-26 08:31N 47°33' W 052°36'5 5.0
2015-Aug-26 07:33N 47°32' W 052°29'7 5.8
2015-Aug-26 06:23N 47°32' W 052°19'16 5.4
2015-Aug-26 03:24N 47°29' W 051°56'  
Track history (hours):
 
Tides and Currents Weather Stations Pressure Air Temp Water Temp Dewpoint Dewpoint Depression Visibility Wind Speed Wind Dir Waves Ship Positions

Western Trident

Last reported at 2015-Aug-28 20:30 UTC. Time now 2015-Sep-03 17:14 UTC.
Position N 47°47' W 052°11'.

Length 95 m; draft 7.4 m.

Type: Other ship. MMSI: 357269000.

Date/timePositionNaut miles runAvg speedWind from/ knotsBaromVisibWave heightAir tempDewpointWater temp
2015-Aug-28 20:30N 47°47' W 052°11'1212.4
2015-Aug-28 19:33N 47°39' W 052°24'1210.2
2015-Aug-28 18:23N 47°34' W 052°40'1 0.7
2015-Aug-28 16:22N 47°34' W 052°42'0 0.0
2015-Aug-28 15:28N 47°34' W 052°42'0 0.0
2015-Aug-28 14:22N 47°34' W 052°42'0 0.0
2015-Aug-28 13:28N 47°34' W 052°42'0 0.0
2015-Aug-28 12:28N 47°34' W 052°42'0 0.0
2015-Aug-28 11:28N 47°34' W 052°42'0 0.0
2015-Aug-28 10:22N 47°34' W 052°42'0 0.0
2015-Aug-28 09:22N 47°34' W 052°42'0 0.0
2015-Aug-28 08:28N 47°34' W 052°42'0 0.0
2015-Aug-28 07:16N 47°34' W 052°42'0 0.0
2015-Aug-28 06:16N 47°34' W 052°42'0 0.0
2015-Aug-28 05:22N 47°34' W 052°42'0 0.0
2015-Aug-28 04:22N 47°34' W 052°42'0 0.0
2015-Aug-28 03:28N 47°34' W 052°42'0 0.0
2015-Aug-27 14:16N 47°34' W 052°42'0 0.0
2015-Aug-27 13:28N 47°34' W 052°42'0 0.0
2015-Aug-27 12:22N 47°34' W 052°42'0 0.0
2015-Aug-27 11:28N 47°34' W 052°42'0 0.0
2015-Aug-26 11:10N 47°34' W 052°42'0 0.0
2015-Aug-26 10:28N 47°34' W 052°42'2 1.8
2015-Aug-26 09:23N 47°34' W 052°39'2 2.5
2015-Aug-26 08:31N 47°33' W 052°36'5 5.0
2015-Aug-26 07:33N 47°32' W 052°29'7 5.8
2015-Aug-26 06:23N 47°32' W 052°19'16 5.4
2015-Aug-26 03:24N 47°29' W 051°56'  

Dump ship's entire track history